sensor_id;sensor_type;location;lat;lon;timestamp;pressure;altitude;pressure_sealevel;temperature;humidity
23118;BME280;11728;50.624;6.014;2023-01-23T00:00:46;99866.63;;;1.66;100.00
23118;BME280;11728;50.624;6.014;2023-01-23T00:06:04;99869.28;;;1.68;100.00
23118;BME280;11728;50.624;6.014;2023-01-23T00:11:07;99878.03;;;1.70;100.00
23118;BME280;11728;50.624;6.014;2023-01-23T00:16:12;99872.72;;;1.67;100.00
23118;BME280;11728;50.624;6.014;2023-01-23T00:21:15;99868.56;;;1.72;100.00
23118;BME280;11728;50.624;6.014;2023-01-23T00:26:22;99861.53;;;1.69;100.00
23118;BME280;11728;50.624;6.014;2023-01-23T00:31:25;99872.69;;;1.65;100.00
23118;BME280;11728;50.624;6.014;2023-01-23T00:36:28;99869.16;;;1.65;100.00
23118;BME280;11728;50.624;6.014;2023-01-23T00:41:29;99866.63;;;1.66;100.00
23118;BME280;11728;50.624;6.014;2023-01-23T00:46:29;99876.16;;;1.66;100.00
23118;BME280;11728;50.624;6.014;2023-01-23T00:51:30;99862.97;;;1.61;100.00
23118;BME280;11728;50.624;6.014;2023-01-23T00:56:31;99875.81;;;1.57;100.00
23118;BME280;11728;50.624;6.014;2023-01-23T01:01:32;99886.38;;;1.61;100.00
23118;BME280;11728;50.624;6.014;2023-01-23T01:06:33;99886.44;;;1.63;100.00
23118;BME280;11728;50.624;6.014;2023-01-23T01:11:33;99895.09;;;1.62;100.00
23118;BME280;11728;50.624;6.014;2023-01-23T01:16:34;99896.09;;;1.65;100.00
23118;BME280;11728;50.624;6.014;2023-01-23T01:21:35;99899.63;;;1.67;100.00
23118;BME280;11728;50.624;6.014;2023-01-23T01:26:36;99894.25;;;1.63;100.00
23118;BME280;11728;50.624;6.014;2023-01-23T01:31:36;99897.75;;;1.63;100.00
23118;BME280;11728;50.624;6.014;2023-01-23T01:36:37;99900.34;;;1.63;100.00
23118;BME280;11728;50.624;6.014;2023-01-23T01:41:37;99907.38;;;1.66;100.00
23118;BME280;11728;50.624;6.014;2023-01-23T01:46:38;99913.56;;;1.68;100.00
23118;BME280;11728;50.624;6.014;2023-01-23T01:56:56;99906.53;;;1.65;100.00
23118;BME280;11728;50.624;6.014;2023-01-23T02:02:19;99918.69;;;1.66;100.00
23118;BME280;11728;50.624;6.014;2023-01-23T02:07:43;99908.38;;;1.69;100.00
23118;BME280;11728;50.624;6.014;2023-01-23T02:12:46;99908.53;;;1.72;100.00
23118;BME280;11728;50.624;6.014;2023-01-23T02:17:49;99907.53;;;1.69;100.00
23118;BME280;11728;50.624;6.014;2023-01-23T02:23:10;99894.38;;;1.66;100.00
23118;BME280;11728;50.624;6.014;2023-01-23T02:28:13;99895.31;;;1.68;100.00
23118;BME280;11728;50.624;6.014;2023-01-23T02:38:23;99892.13;;;1.75;100.00
23118;BME280;11728;50.624;6.014;2023-01-23T02:43:26;99893.78;;;1.73;100.00
23118;BME280;11728;50.624;6.014;2023-01-23T02:48:34;99892.91;;;1.72;100.00
23118;BME280;11728;50.624;6.014;2023-01-23T02:53:36;99888.38;;;1.68;100.00
23118;BME280;11728;50.624;6.014;2023-01-23T02:58:37;99887.56;;;1.69;100.00
23118;BME280;11728;50.624;6.014;2023-01-23T03:03:56;99881.53;;;1.70;100.00
23118;BME280;11728;50.624;6.014;2023-01-23T03:08:56;99894.78;;;1.76;100.00
23118;BME280;11728;50.624;6.014;2023-01-23T03:13:59;99893.94;;;1.77;100.00
23118;BME280;11728;50.624;6.014;2023-01-23T03:19:02;99906.19;;;1.80;100.00
23118;BME280;11728;50.624;6.014;2023-01-23T03:24:10;99910.53;;;1.79;100.00
23118;BME280;11728;50.624;6.014;2023-01-23T03:29:23;99890.28;;;1.72;100.00
23118;BME280;11728;50.624;6.014;2023-01-23T03:34:43;99901.53;;;1.71;100.00
23118;BME280;11728;50.624;6.014;2023-01-23T03:39:44;99901.59;;;1.73;100.00
23118;BME280;11728;50.624;6.014;2023-01-23T03:45:05;99901.59;;;1.73;100.00
23118;BME280;11728;50.624;6.014;2023-01-23T03:50:09;99887.63;;;1.71;100.00
23118;BME280;11728;50.624;6.014;2023-01-23T03:55:11;99897.31;;;1.75;100.00
23118;BME280;11728;50.624;6.014;2023-01-23T04:00:13;99897.50;;;1.79;100.00
23118;BME280;11728;50.624;6.014;2023-01-23T04:05:36;99904.41;;;1.79;100.00
23118;BME280;11728;50.624;6.014;2023-01-23T04:10:38;99902.81;;;1.82;100.00
23118;BME280;11728;50.624;6.014;2023-01-23T04:15:46;99905.41;;;1.82;100.00
23118;BME280;11728;50.624;6.014;2023-01-23T04:20:49;99907.19;;;1.83;100.00
23118;BME280;11728;50.624;6.014;2023-01-23T04:25:50;99911.69;;;1.87;100.00
23118;BME280;11728;50.624;6.014;2023-01-23T04:30:51;99921.19;;;1.87;100.00
23118;BME280;11728;50.624;6.014;2023-01-23T04:36:00;99916.00;;;1.87;100.00
23118;BME280;11728;50.624;6.014;2023-01-23T04:41:03;99910.38;;;1.76;100.00
23118;BME280;11728;50.624;6.014;2023-01-23T04:46:08;99909.38;;;1.73;100.00
23118;BME280;11728;50.624;6.014;2023-01-23T04:51:25;99906.63;;;1.68;100.00
23118;BME280;11728;50.624;6.014;2023-01-23T04:56:26;99900.53;;;1.68;100.00
23118;BME280;11728;50.624;6.014;2023-01-23T05:01:27;99899.63;;;1.67;100.00
23118;BME280;11728;50.624;6.014;2023-01-23T05:06:32;99897.84;;;1.66;100.00
23118;BME280;11728;50.624;6.014;2023-01-23T05:11:33;99892.56;;;1.63;100.00
23118;BME280;11728;50.624;6.014;2023-01-23T05:16:35;99896.09;;;1.65;100.00
23118;BME280;11728;50.624;6.014;2023-01-23T05:21:52;99897.75;;;1.63;100.00
23118;BME280;11728;50.624;6.014;2023-01-23T05:26:54;99907.44;;;1.67;100.00
23118;BME280;11728;50.624;6.014;2023-01-23T05:31:55;99913.72;;;1.72;100.00
23118;BME280;11728;50.624;6.014;2023-01-23T05:37:10;99929.41;;;1.74;100.00
23118;BME280;11728;50.624;6.014;2023-01-23T05:42:13;99939.81;;;1.74;100.00
23118;BME280;11728;50.624;6.014;2023-01-23T05:47:16;99942.41;;;1.74;100.00
23118;BME280;11728;50.624;6.014;2023-01-23T05:52:17;99940.75;;;1.76;100.00
23118;BME280;11728;50.624;6.014;2023-01-23T05:57:17;99939.75;;;1.72;100.00
23118;BME280;11728;50.624;6.014;2023-01-23T06:02:38;99940.59;;;1.71;100.00
23118;BME280;11728;50.624;6.014;2023-01-23T06:07:39;99936.91;;;1.66;100.00
23118;BME280;11728;50.624;6.014;2023-01-23T06:12:42;99943.78;;;1.64;100.00
23118;BME280;11728;50.624;6.014;2023-01-23T06:17:42;99937.63;;;1.62;100.00
23118;BME280;11728;50.624;6.014;2023-01-23T06:22:43;99948.91;;;1.63;100.00
23118;BME280;11728;50.624;6.014;2023-01-23T06:27:46;99960.09;;;1.60;100.00
23118;BME280;11728;50.624;6.014;2023-01-23T06:32:47;99960.22;;;1.63;100.00
23118;BME280;11728;50.624;6.014;2023-01-23T06:37:52;99965.66;;;1.69;100.00
23118;BME280;11728;50.624;6.014;2023-01-23T06:42:54;99975.03;;;1.64;100.00
23118;BME280;11728;50.624;6.014;2023-01-23T06:47:56;99984.72;;;1.68;100.00
23118;BME280;11728;50.624;6.014;2023-01-23T06:52:57;99989.88;;;1.67;100.00
23118;BME280;11728;50.624;6.014;2023-01-23T06:58:00;99993.34;;;1.67;100.00
23118;BME280;11728;50.624;6.014;2023-01-23T07:03:01;100006.53;;;1.72;100.00
23118;BME280;11728;50.624;6.014;2023-01-23T07:08:06;100009.09;;;1.70;100.00
23118;BME280;11728;50.624;6.014;2023-01-23T07:13:10;100008.13;;;1.68;100.00
23118;BME280;11728;50.624;6.014;2023-01-23T07:18:10;100017.59;;;1.66;100.00
23118;BME280;11728;50.624;6.014;2023-01-23T07:23:11;100026.38;;;1.68;100.00
23118;BME280;11728;50.624;6.014;2023-01-23T07:28:12;100035.13;;;1.70;100.00
23118;BME280;11728;50.624;6.014;2023-01-23T07:33:12;100044.72;;;1.71;100.00
23118;BME280;11728;50.624;6.014;2023-01-23T07:38:13;100050.69;;;1.69;100.00
23118;BME280;11728;50.624;6.014;2023-01-23T07:43:13;100055.13;;;1.71;100.00
23118;BME280;11728;50.624;6.014;2023-01-23T07:48:14;100055.19;;;1.73;100.00
23118;BME280;11728;50.624;6.014;2023-01-23T07:53:14;100057.84;;;1.74;100.00
23118;BME280;11728;50.624;6.014;2023-01-23T07:58:15;100061.53;;;1.79;100.00
23118;BME280;11728;50.624;6.014;2023-01-23T08:03:15;100052.91;;;1.80;100.00
23118;BME280;11728;50.624;6.014;2023-01-23T08:08:16;100053.50;;;1.95;100.00
23118;BME280;11728;50.624;6.014;2023-01-23T08:13:16;100055.50;;;2.02;100.00
23118;BME280;11728;50.624;6.014;2023-01-23T08:18:17;100050.53;;;2.08;100.00
23118;BME280;11728;50.624;6.014;2023-01-23T08:23:18;100054.91;;;2.09;100.00
23118;BME280;11728;50.624;6.014;2023-01-23T08:28:18;100057.63;;;2.12;100.00
23118;BME280;11728;50.624;6.014;2023-01-23T08:33:19;100045.78;;;2.20;100.00
23118;BME280;11728;50.624;6.014;2023-01-23T08:38:20;100038.19;;;2.26;100.00
23118;BME280;11728;50.624;6.014;2023-01-23T08:43:21;100042.69;;;2.30;100.00
23118;BME280;11728;50.624;6.014;2023-01-23T08:48:23;100033.44;;;2.38;100.00
23118;BME280;11728;50.624;6.014;2023-01-23T08:53:23;100036.41;;;2.47;100.00
23118;BME280;11728;50.624;6.014;2023-01-23T08:58:24;100036.63;;;2.53;100.00
23118;BME280;11728;50.624;6.014;2023-01-23T09:03:26;100055.91;;;2.58;100.00
23118;BME280;11728;50.624;6.014;2023-01-23T09:08:26;100053.13;;;2.53;100.00
23118;BME280;11728;50.624;6.014;2023-01-23T09:13:27;100053.28;;;2.58;100.00
23118;BME280;11728;50.624;6.014;2023-01-23T09:18:28;100064.31;;;2.74;100.00
23118;BME280;11728;50.624;6.014;2023-01-23T09:23:29;100070.53;;;2.78;100.00
23118;BME280;11728;50.624;6.014;2023-01-23T09:28:29;100077.69;;;2.83;100.00
23118;BME280;11728;50.624;6.014;2023-01-23T09:33:30;100079.16;;;2.75;100.00
23118;BME280;11728;50.624;6.014;2023-01-23T09:38:31;100087.75;;;2.73;100.00
23118;BME280;11728;50.624;6.014;2023-01-23T09:43:38;100076.53;;;2.99;100.00
23118;BME280;11728;50.624;6.014;2023-01-23T09:48:43;100081.56;;;3.17;100.00
23118;BME280;11728;50.624;6.014;2023-01-23T09:53:44;100076.06;;;3.86;100.00
23118;BME280;11728;50.624;6.014;2023-01-23T09:58:58;100078.59;;;4.11;100.00
23118;BME280;11728;50.624;6.014;2023-01-23T10:04:00;100081.44;;;3.90;100.00
23118;BME280;11728;50.624;6.014;2023-01-23T10:09:26;100094.50;;;3.64;100.00
23118;BME280;11728;50.624;6.014;2023-01-23T10:14:56;100088.19;;;3.58;100.00
23118;BME280;11728;50.624;6.014;2023-01-23T10:25:19;100087.41;;;3.35;100.00
23118;BME280;11728;50.624;6.014;2023-01-23T10:30:32;100101.94;;;3.27;100.00
23118;BME280;11728;50.624;6.014;2023-01-23T10:35:35;100095.66;;;3.22;100.00
23118;BME280;11728;50.624;6.014;2023-01-23T10:40:39;100100.03;;;3.23;100.00
23118;BME280;11728;50.624;6.014;2023-01-23T10:45:58;100098.47;;;3.28;100.00
23118;BME280;11728;50.624;6.014;2023-01-23T10:50:59;100102.84;;;3.29;100.00
23118;BME280;11728;50.624;6.014;2023-01-23T10:56:00;100103.22;;;3.15;100.00
23118;BME280;11728;50.624;6.014;2023-01-23T11:01:01;100098.09;;;3.18;100.00
23118;BME280;11728;50.624;6.014;2023-01-23T11:06:08;100086.28;;;3.27;100.00
23118;BME280;11728;50.624;6.014;2023-01-23T11:11:30;100085.84;;;3.40;100.00
23118;BME280;11728;50.624;6.014;2023-01-23T11:16:31;100092.00;;;3.42;100.00
23118;BME280;11728;50.624;6.014;2023-01-23T11:21:35;100086.91;;;3.47;100.00
23118;BME280;11728;50.624;6.014;2023-01-23T11:26:36;100080.06;;;3.50;100.00
23118;BME280;11728;50.624;6.014;2023-01-23T11:31:39;100081.97;;;3.54;100.00
23118;BME280;11728;50.624;6.014;2023-01-23T11:42:09;100047.97;;;3.79;100.00
23118;BME280;11728;50.624;6.014;2023-01-23T11:58:05;100038.19;;;4.00;99.60
23118;BME280;11728;50.624;6.014;2023-01-23T12:09:00;100020.28;;;4.13;99.77
23118;BME280;11728;50.624;6.014;2023-01-23T12:19:32;100026.66;;;3.93;99.13
23118;BME280;11728;50.624;6.014;2023-01-23T12:24:40;100039.69;;;3.92;98.96
23118;BME280;11728;50.624;6.014;2023-01-23T12:35:06;100047.88;;;3.76;98.73
23118;BME280;11728;50.624;6.014;2023-01-23T12:40:27;100047.38;;;3.61;99.54
23118;BME280;11728;50.624;6.014;2023-01-23T12:45:31;100058.13;;;3.44;99.80
23118;BME280;11728;50.624;6.014;2023-01-23T12:50:45;100050.16;;;3.41;100.00
23118;BME280;11728;50.624;6.014;2023-01-23T12:56:15;100045.03;;;3.42;99.84
23118;BME280;11728;50.624;6.014;2023-01-23T13:01:31;100044.91;;;3.39;100.00
23118;BME280;11728;50.624;6.014;2023-01-23T13:06:54;100046.69;;;3.40;100.00
23118;BME280;11728;50.624;6.014;2023-01-23T13:12:21;100043.81;;;3.33;100.00
23118;BME280;11728;50.624;6.014;2023-01-23T13:17:49;100050.88;;;3.35;100.00
23118;BME280;11728;50.624;6.014;2023-01-23T13:22:50;100048.94;;;3.30;100.00
23118;BME280;11728;50.624;6.014;2023-01-23T13:27:53;100052.34;;;3.27;100.00
23118;BME280;11728;50.624;6.014;2023-01-23T13:32:58;100060.72;;;3.19;100.00
23118;BME280;11728;50.624;6.014;2023-01-23T13:38:27;100062.88;;;3.30;100.00
23118;BME280;11728;50.624;6.014;2023-01-23T13:48:56;100062.97;;;3.33;100.00
23118;BME280;11728;50.624;6.014;2023-01-23T13:54:28;100069.97;;;3.34;100.00
23118;BME280;11728;50.624;6.014;2023-01-23T13:59:50;100072.00;;;3.18;100.00
23118;BME280;11728;50.624;6.014;2023-01-23T14:04:59;100076.38;;;3.19;100.00
23118;BME280;11728;50.624;6.014;2023-01-23T14:10:22;100068.09;;;3.30;100.00
23118;BME280;11728;50.624;6.014;2023-01-23T14:15:25;100084.66;;;3.31;99.77
23118;BME280;11728;50.624;6.014;2023-01-23T14:20:45;100066.19;;;3.51;99.81
23118;BME280;11728;50.624;6.014;2023-01-23T14:25:46;100071.53;;;3.54;99.43
23118;BME280;11728;50.624;6.014;2023-01-23T14:35:54;100079.31;;;3.53;99.62
23118;BME280;11728;50.624;6.014;2023-01-23T14:41:01;100072.25;;;3.50;99.16
23118;BME280;11728;50.624;6.014;2023-01-23T14:46:06;100076.19;;;3.38;99.29
23118;BME280;11728;50.624;6.014;2023-01-23T14:51:17;100074.25;;;3.32;98.91
23118;BME280;11728;50.624;6.014;2023-01-23T14:56:20;100087.94;;;3.25;99.63
23118;BME280;11728;50.624;6.014;2023-01-23T15:01:22;100087.59;;;3.16;99.11
23118;BME280;11728;50.624;6.014;2023-01-23T15:06:23;100089.44;;;3.19;99.70
23118;BME280;11728;50.624;6.014;2023-01-23T15:11:26;100092.41;;;3.04;99.61
23118;BME280;11728;50.624;6.014;2023-01-23T15:16:34;100092.06;;;2.96;100.00
23118;BME280;11728;50.624;6.014;2023-01-23T15:21:39;100088.31;;;2.88;100.00
23118;BME280;11728;50.624;6.014;2023-01-23T15:26:55;100095.84;;;2.80;100.00
23118;BME280;11728;50.624;6.014;2023-01-23T15:31:56;100084.53;;;2.80;100.00
23118;BME280;11728;50.624;6.014;2023-01-23T15:47:10;100097.19;;;2.69;100.00
23118;BME280;11728;50.624;6.014;2023-01-23T15:52:47;100104.66;;;2.60;100.00
23118;BME280;11728;50.624;6.014;2023-01-23T15:57:48;100097.13;;;2.68;100.00
23118;BME280;11728;50.624;6.014;2023-01-23T16:02:48;100103.88;;;2.63;100.00
23118;BME280;11728;50.624;6.014;2023-01-23T16:07:51;100095.75;;;2.54;100.00
23118;BME280;11728;50.624;6.014;2023-01-23T16:12:54;100087.84;;;2.52;100.00
23118;BME280;11728;50.624;6.014;2023-01-23T16:17:56;100081.53;;;2.46;100.00
23118;BME280;11728;50.624;6.014;2023-01-23T16:22:58;100068.69;;;2.50;100.00
23118;BME280;11728;50.624;6.014;2023-01-23T16:27:59;100062.59;;;2.51;100.00
23118;BME280;11728;50.624;6.014;2023-01-23T16:33:00;100068.59;;;2.49;100.00
23118;BME280;11728;50.624;6.014;2023-01-23T16:38:00;100058.13;;;2.47;100.00
23118;BME280;11728;50.624;6.014;2023-01-23T16:43:01;100058.16;;;2.49;100.00
23118;BME280;11728;50.624;6.014;2023-01-23T16:48:02;100048.56;;;2.48;100.00
23118;BME280;11728;50.624;6.014;2023-01-23T16:53:11;100053.69;;;2.45;100.00
23118;BME280;11728;50.624;6.014;2023-01-23T16:58:19;100060.84;;;2.50;100.00
23118;BME280;11728;50.624;6.014;2023-01-23T17:03:22;100053.78;;;2.48;100.00
23118;BME280;11728;50.624;6.014;2023-01-23T17:08:28;100065.94;;;2.47;100.00
23118;BME280;11728;50.624;6.014;2023-01-23T17:13:31;100064.94;;;2.44;100.00
23118;BME280;11728;50.624;6.014;2023-01-23T17:18:35;100070.94;;;2.41;100.00
23118;BME280;11728;50.624;6.014;2023-01-23T17:23:35;100086.75;;;2.46;100.00
23118;BME280;11728;50.624;6.014;2023-01-23T17:28:36;100091.00;;;2.44;100.00
23118;BME280;11728;50.624;6.014;2023-01-23T17:33:36;100095.16;;;2.39;100.00
23118;BME280;11728;50.624;6.014;2023-01-23T17:38:37;100097.78;;;2.39;100.00
23118;BME280;11728;50.624;6.014;2023-01-23T17:43:39;100094.31;;;2.40;100.00
23118;BME280;11728;50.624;6.014;2023-01-23T17:48:40;100107.59;;;2.46;100.00
23118;BME280;11728;50.624;6.014;2023-01-23T17:53:40;100106.59;;;2.42;100.00
23118;BME280;11728;50.624;6.014;2023-01-23T17:58:41;100098.78;;;2.42;100.00
23118;BME280;11728;50.624;6.014;2023-01-23T18:03:42;100083.84;;;2.38;100.00
23118;BME280;11728;50.624;6.014;2023-01-23T18:08:42;100084.47;;;2.33;100.00
23118;BME280;11728;50.624;6.014;2023-01-23T18:19:14;100073.84;;;2.27;100.00
23118;BME280;11728;50.624;6.014;2023-01-23T18:24:23;100069.28;;;2.22;100.00
23118;BME280;11728;50.624;6.014;2023-01-23T18:34:52;100068.88;;;2.11;100.00
23118;BME280;11728;50.624;6.014;2023-01-23T18:45:13;100078.81;;;2.21;100.00
23118;BME280;11728;50.624;6.014;2023-01-23T18:50:17;100076.09;;;2.18;100.00
23118;BME280;11728;50.624;6.014;2023-01-23T19:05:44;100072.56;;;2.16;100.00
23118;BME280;11728;50.624;6.014;2023-01-23T19:10:46;100076.03;;;2.17;100.00
23118;BME280;11728;50.624;6.014;2023-01-23T19:16:30;100085.59;;;2.16;100.00
23118;BME280;11728;50.624;6.014;2023-01-23T19:21:31;100079.22;;;2.10;100.00
23118;BME280;11728;50.624;6.014;2023-01-23T19:26:34;100090.53;;;2.10;100.00
23118;BME280;11728;50.624;6.014;2023-01-23T19:31:37;100081.84;;;2.10;100.00
23118;BME280;11728;50.624;6.014;2023-01-23T19:36:38;100086.19;;;2.09;100.00
23118;BME280;11728;50.624;6.014;2023-01-23T19:41:46;100101.72;;;2.08;100.00
23118;BME280;11728;50.624;6.014;2023-01-23T19:46:47;100128.78;;;2.11;100.00
23118;BME280;11728;50.624;6.014;2023-01-23T19:51:48;100129.69;;;2.12;100.00
23118;BME280;11728;50.624;6.014;2023-01-23T19:56:48;100139.19;;;2.11;100.00
23118;BME280;11728;50.624;6.014;2023-01-23T20:01:50;100155.66;;;2.10;100.00
23118;BME280;11728;50.624;6.014;2023-01-23T20:06:51;100151.41;;;2.12;100.00
23118;BME280;11728;50.624;6.014;2023-01-23T20:11:52;100142.59;;;2.09;100.00
23118;BME280;11728;50.624;6.014;2023-01-23T20:16:52;100148.69;;;2.09;100.00
23118;BME280;11728;50.624;6.014;2023-01-23T20:21:53;100158.41;;;2.13;100.00
23118;BME280;11728;50.624;6.014;2023-01-23T20:26:53;100160.03;;;2.11;100.00
23118;BME280;11728;50.624;6.014;2023-01-23T20:31:54;100160.72;;;2.06;100.00
23118;BME280;11728;50.624;6.014;2023-01-23T20:36:55;100164.34;;;2.09;100.00
23118;BME280;11728;50.624;6.014;2023-01-23T20:41:55;100167.66;;;2.07;100.00
23118;BME280;11728;50.624;6.014;2023-01-23T20:46:56;100162.47;;;2.07;100.00
23118;BME280;11728;50.624;6.014;2023-01-23T20:51:56;100159.94;;;2.08;100.00
23118;BME280;11728;50.624;6.014;2023-01-23T20:57:16;100151.41;;;2.12;100.00
23118;BME280;11728;50.624;6.014;2023-01-23T21:02:17;100153.19;;;2.13;100.00
23118;BME280;11728;50.624;6.014;2023-01-23T21:07:24;100145.38;;;2.13;100.00
23118;BME280;11728;50.624;6.014;2023-01-23T21:12:27;100152.38;;;2.14;100.00
23118;BME280;11728;50.624;6.014;2023-01-23T21:17:27;100148.88;;;2.14;100.00
23118;BME280;11728;50.624;6.014;2023-01-23T21:22:28;100148.69;;;2.09;100.00
23118;BME280;11728;50.624;6.014;2023-01-23T21:27:28;100137.41;;;2.10;100.00
23118;BME280;11728;50.624;6.014;2023-01-23T21:32:29;100144.31;;;2.08;100.00
23118;BME280;11728;50.624;6.014;2023-01-23T21:37:29;100151.22;;;2.08;100.00
23118;BME280;11728;50.624;6.014;2023-01-23T21:42:30;100146.09;;;2.09;100.00
23118;BME280;11728;50.624;6.014;2023-01-23T21:47:30;100141.72;;;2.08;100.00
23118;BME280;11728;50.624;6.014;2023-01-23T21:52:30;100139.19;;;2.11;100.00
23118;BME280;11728;50.624;6.014;2023-01-23T21:57:31;100154.72;;;2.08;100.00
23118;BME280;11728;50.624;6.014;2023-01-23T22:02:31;100152.94;;;2.07;100.00
23118;BME280;11728;50.624;6.014;2023-01-23T22:07:32;100156.38;;;2.06;100.00
23118;BME280;11728;50.624;6.014;2023-01-23T22:12:32;100150.34;;;2.07;100.00
23118;BME280;11728;50.624;6.014;2023-01-23T22:17:33;100146.09;;;2.09;100.00
23118;BME280;11728;50.624;6.014;2023-01-23T22:22:33;100139.19;;;2.11;100.00
23118;BME280;11728;50.624;6.014;2023-01-23T22:27:34;100139.19;;;2.11;100.00
23118;BME280;11728;50.624;6.014;2023-01-23T22:32:34;100146.19;;;2.12;100.00
23118;BME280;11728;50.624;6.014;2023-01-23T22:37:35;100141.56;;;2.05;100.00
23118;BME280;11728;50.624;6.014;2023-01-23T22:42:36;100144.19;;;2.05;100.00
23118;BME280;11728;50.624;6.014;2023-01-23T22:47:36;100137.28;;;2.06;100.00
23118;BME280;11728;50.624;6.014;2023-01-23T22:52:37;100151.16;;;2.06;100.00
23118;BME280;11728;50.624;6.014;2023-01-23T22:57:37;100162.47;;;2.07;100.00
23118;BME280;11728;50.624;6.014;2023-01-23T23:02:38;100154.72;;;2.08;100.00
23118;BME280;11728;50.624;6.014;2023-01-23T23:07:39;100147.84;;;2.10;100.00
23118;BME280;11728;50.624;6.014;2023-01-23T23:12:39;100145.13;;;2.07;100.00
23118;BME280;11728;50.624;6.014;2023-01-23T23:17:40;100144.94;;;2.03;100.00
23118;BME280;11728;50.624;6.014;2023-01-23T23:22:42;100140.69;;;2.05;100.00
23118;BME280;11728;50.624;6.014;2023-01-23T23:27:42;100140.69;;;2.05;100.00
23118;BME280;11728;50.624;6.014;2023-01-23T23:32:43;100145.97;;;2.06;100.00
23118;BME280;11728;50.624;6.014;2023-01-23T23:37:43;100140.69;;;2.05;100.00
23118;BME280;11728;50.624;6.014;2023-01-23T23:42:43;100131.09;;;2.04;100.00
23118;BME280;11728;50.624;6.014;2023-01-23T23:47:44;100131.88;;;2.01;100.00
23118;BME280;11728;50.624;6.014;2023-01-23T23:52:44;100118.84;;;2.01;100.00
23118;BME280;11728;50.624;6.014;2023-01-23T23:57:45;100131.75;;;1.98;100.00
